createdAt,value
2023-05-19T00:02:13.587Z,11.99
2023-05-19T00:05:18.589Z,11.97
2023-05-19T00:08:22.452Z,11.99
2023-05-19T00:11:26.898Z,11.95
2023-05-19T00:14:29.208Z,11.95
2023-05-19T00:17:31.559Z,11.96
2023-05-19T00:20:33.880Z,11.94
2023-05-19T00:23:36.391Z,11.90
2023-05-19T00:26:38.584Z,11.92
2023-05-19T00:29:42.306Z,11.94
2023-05-19T00:32:44.491Z,12.01
2023-05-19T00:35:47.081Z,11.96
2023-05-19T00:38:51.055Z,12.00
2023-05-19T00:41:53.526Z,11.93
2023-05-19T00:44:55.752Z,11.88
2023-05-19T00:47:58.116Z,11.99
2023-05-19T00:51:04.740Z,11.97
2023-05-19T00:54:08.097Z,11.89
2023-05-19T00:57:10.446Z,11.81
2023-05-19T01:00:13.733Z,11.78
2023-05-19T01:03:20.407Z,11.92
2023-05-19T01:06:23.089Z,11.75
2023-05-19T01:09:25.238Z,11.62
2023-05-19T01:12:27.569Z,11.54
2023-05-19T01:15:30.687Z,11.49
2023-05-19T01:18:56.158Z,11.42
2023-05-19T01:22:14.391Z,11.35
2023-05-19T01:25:22.635Z,11.31
2023-05-19T01:28:43.321Z,11.28
2023-05-19T01:31:50.381Z,11.31
2023-05-19T01:34:52.898Z,11.32
2023-05-19T01:37:57.429Z,11.31
2023-05-19T01:41:01.302Z,11.32
2023-05-19T01:44:04.077Z,11.32
2023-05-19T01:47:06.409Z,11.26
2023-05-19T01:50:09.463Z,11.28
2023-05-19T01:53:11.516Z,11.25
2023-05-19T01:56:16.835Z,11.23
2023-05-19T01:59:27.877Z,11.25
2023-05-19T02:02:50.971Z,11.25
2023-05-19T02:06:01.312Z,11.23
2023-05-19T02:09:07.260Z,11.22
2023-05-19T02:12:20.275Z,11.22
2023-05-19T02:15:26.587Z,11.19
2023-05-19T02:18:29.980Z,11.18
2023-05-19T02:21:32.392Z,11.18
2023-05-19T02:24:34.397Z,11.15
2023-05-19T02:27:37.237Z,11.18
2023-05-19T02:30:39.215Z,11.16
2023-05-19T02:33:42.936Z,11.15
2023-05-19T02:36:44.972Z,11.17
2023-05-19T02:39:47.632Z,11.17
2023-05-19T02:42:49.647Z,11.16
2023-05-19T02:45:52.074Z,11.15
2023-05-19T02:48:54.984Z,11.12
2023-05-19T02:51:57.480Z,11.14
2023-05-19T02:54:59.458Z,11.10
2023-05-19T02:58:01.813Z,11.06
2023-05-19T03:01:04.337Z,11.05
2023-05-19T03:04:06.918Z,11.05
2023-05-19T03:07:10.270Z,11.04
2023-05-19T03:10:12.569Z,11.06
2023-05-19T03:13:14.696Z,11.04
2023-05-19T03:16:17.391Z,11.06
2023-05-19T03:19:19.572Z,11.07
2023-05-19T03:22:22.025Z,11.10
2023-05-19T03:25:24.217Z,11.12
2023-05-19T03:28:27.582Z,11.17
2023-05-19T03:31:30.594Z,11.21
2023-05-19T03:34:35.446Z,11.24
2023-05-19T03:37:37.680Z,11.30
2023-05-19T03:40:41.340Z,11.33
2023-05-19T03:43:43.709Z,11.37
2023-05-19T03:46:46.172Z,11.40
2023-05-19T03:49:49.922Z,11.44
2023-05-19T03:52:53.644Z,11.50
2023-05-19T03:55:57.029Z,11.57
2023-05-19T03:58:59.455Z,11.63
2023-05-19T04:02:01.524Z,11.71
2023-05-19T04:05:07.169Z,11.71
2023-05-19T04:08:09.249Z,11.78
2023-05-19T04:11:13.376Z,11.89
2023-05-19T04:14:16.118Z,11.89
2023-05-19T04:17:19.045Z,11.89
2023-05-19T04:20:21.416Z,11.96
2023-05-19T04:23:23.845Z,12.02
2023-05-19T04:26:26.928Z,12.14
2023-05-19T04:29:29.583Z,12.22
2023-05-19T04:32:32.144Z,12.31
2023-05-19T04:35:38.168Z,12.41
2023-05-19T04:38:42.172Z,12.33
2023-05-19T04:41:45.138Z,12.39
2023-05-19T04:44:49.370Z,12.53
2023-05-19T04:47:52.614Z,12.76
2023-05-19T04:50:54.811Z,12.93
2023-05-19T04:53:58.288Z,13.24
2023-05-19T04:57:01.289Z,13.51
2023-05-19T05:00:08.371Z,13.65
2023-05-19T05:03:14.468Z,13.61
2023-05-19T05:06:18.281Z,13.80
2023-05-19T05:09:21.097Z,13.99
2023-05-19T05:12:24.482Z,14.16
2023-05-19T05:15:28.855Z,14.25
2023-05-19T05:18:33.851Z,14.32
2023-05-19T05:21:36.681Z,14.48
2023-05-19T05:24:40.207Z,14.81
2023-05-19T05:27:43.864Z,15.05
2023-05-19T05:30:46.525Z,15.01
2023-05-19T05:33:49.823Z,15.41
2023-05-19T05:36:53.577Z,15.82
2023-05-19T05:39:56.746Z,15.77
2023-05-19T05:42:59.667Z,15.11
2023-05-19T05:46:02.860Z,15.41
2023-05-19T05:49:05.627Z,16.25
2023-05-19T05:52:09.120Z,17.03
2023-05-19T05:55:13.638Z,16.34
2023-05-19T05:58:17.079Z,16.23
2023-05-19T06:01:21.036Z,15.87
2023-05-19T06:04:25.691Z,15.07
2023-05-19T06:07:29.540Z,15.29
2023-05-19T06:10:32.755Z,15.52
2023-05-19T06:13:36.350Z,16.19
2023-05-19T06:16:39.879Z,17.34
2023-05-19T06:19:42.364Z,17.66
2023-05-19T06:22:45.317Z,17.12
2023-05-19T06:25:48.507Z,16.62
2023-05-19T06:28:51.311Z,16.54
2023-05-19T06:31:53.975Z,16.72
2023-05-19T06:34:57.083Z,17.30
2023-05-19T06:38:01.425Z,17.23
2023-05-19T06:41:04.842Z,17.02
2023-05-19T06:44:09.006Z,16.62
2023-05-19T06:47:11.342Z,17.07
2023-05-19T06:50:13.816Z,17.03
2023-05-19T06:53:17.108Z,16.76
2023-05-19T06:56:20.070Z,17.84
2023-05-19T06:59:23.103Z,18.89
2023-05-19T07:02:25.886Z,19.46
2023-05-19T07:05:28.403Z,17.46
2023-05-19T07:08:31.578Z,17.57
2023-05-19T07:11:35.117Z,18.61
2023-05-19T07:14:40.461Z,19.07
2023-05-19T07:17:42.932Z,19.14
2023-05-19T07:20:44.987Z,19.13
2023-05-19T07:23:47.236Z,18.71
2023-05-19T07:26:49.306Z,18.67
2023-05-19T07:29:51.772Z,18.71
2023-05-19T07:32:53.922Z,19.67
2023-05-19T07:35:56.418Z,19.36
2023-05-19T07:38:58.663Z,19.24
2023-05-19T07:42:01.533Z,18.70
2023-05-19T07:45:03.686Z,18.44
2023-05-19T07:48:07.973Z,19.02
2023-05-19T07:51:10.281Z,19.82
2023-05-19T07:54:12.580Z,19.47
2023-05-19T07:57:14.609Z,19.48
2023-05-19T08:00:20.404Z,19.87
2023-05-19T08:03:24.065Z,20.38
2023-05-19T08:06:26.636Z,19.91
2023-05-19T08:09:29.494Z,20.08
2023-05-19T08:12:32.646Z,20.46
2023-05-19T08:15:35.639Z,20.25
2023-05-19T08:18:38.326Z,21.37
2023-05-19T08:21:42.627Z,20.77
2023-05-19T08:24:45.565Z,20.92
2023-05-19T08:27:48.539Z,20.55
2023-05-19T08:30:51.535Z,20.39
2023-05-19T08:33:53.882Z,20.34
2023-05-19T08:36:57.785Z,20.83
2023-05-19T08:40:00.118Z,20.70
2023-05-19T08:43:02.217Z,21.01
2023-05-19T08:46:06.244Z,20.71
2023-05-19T08:49:13.151Z,20.68
2023-05-19T08:52:19.567Z,21.03
2023-05-19T08:55:27.754Z,20.83
2023-05-19T08:58:31.041Z,21.06
2023-05-19T09:01:33.805Z,20.36
2023-05-19T09:04:37.838Z,19.93
2023-05-19T09:07:42.262Z,20.01
2023-05-19T09:10:44.590Z,21.05
2023-05-19T09:13:47.017Z,21.28
2023-05-19T09:16:52.365Z,23.05
2023-05-19T09:19:54.407Z,21.99
2023-05-19T09:22:57.430Z,21.40
2023-05-19T09:26:04.372Z,21.36
2023-05-19T09:29:13.569Z,21.41
2023-05-19T09:32:25.022Z,22.81
2023-05-19T09:35:27.871Z,23.98
2023-05-19T09:38:29.923Z,26.29
2023-05-19T09:41:33.067Z,25.59
2023-05-19T09:44:35.321Z,25.19
2023-05-19T09:47:38.495Z,24.92
2023-05-19T09:50:40.699Z,24.64
2023-05-19T09:53:46.408Z,25.28
2023-05-19T09:56:51.951Z,25.31
2023-05-19T09:59:56.822Z,24.36
2023-05-19T10:03:00.576Z,26.47
2023-05-19T10:06:04.514Z,28.05
2023-05-19T10:09:06.615Z,27.16
2023-05-19T10:12:09.398Z,24.64
2023-05-19T10:15:13.601Z,23.58
2023-05-19T10:18:18.114Z,22.17
2023-05-19T10:21:20.136Z,22.54
2023-05-19T10:24:22.412Z,22.01
2023-05-19T10:27:26.110Z,22.51
2023-05-19T10:30:33.533Z,22.56
2023-05-19T10:33:47.180Z,22.41
2023-05-19T10:36:59.480Z,21.72
2023-05-19T10:40:06.558Z,22.03
2023-05-19T10:43:21.670Z,22.18
2023-05-19T10:46:25.123Z,22.07
2023-05-19T10:49:30.574Z,22.07
2023-05-19T10:52:36.883Z,22.27
2023-05-19T10:55:52.825Z,23.30
2023-05-19T10:58:54.899Z,22.29
2023-05-19T11:01:57.213Z,22.37
2023-05-19T11:05:08.074Z,22.47
2023-05-19T11:08:12.130Z,22.98
2023-05-19T11:11:14.715Z,24.67
2023-05-19T11:14:24.311Z,25.79
2023-05-19T11:17:27.470Z,25.88
2023-05-19T11:20:34.584Z,26.60
2023-05-19T11:23:44.049Z,27.66
2023-05-19T11:26:49.408Z,28.06
2023-05-19T11:30:06.218Z,28.75
2023-05-19T11:38:13.784Z,27.16
2023-05-19T11:41:58.764Z,28.91
2023-05-19T11:45:01.275Z,29.44
2023-05-19T11:48:03.822Z,29.44
2023-05-19T11:51:06.467Z,29.78
2023-05-19T11:58:57.319Z,29.81
2023-05-19T12:02:06.142Z,28.00
2023-05-19T12:05:18.040Z,28.16
2023-05-19T12:08:20.164Z,28.91
2023-05-19T12:16:03.329Z,29.27
2023-05-19T12:19:06.082Z,28.53
2023-05-19T12:22:10.800Z,27.74
2023-05-19T12:25:15.125Z,27.83
2023-05-19T12:28:17.161Z,28.01
2023-05-19T12:31:58.677Z,28.13
2023-05-19T12:35:02.191Z,28.82
2023-05-19T12:39:31.411Z,28.58
2023-05-19T12:43:02.337Z,28.24
2023-05-19T12:46:11.605Z,28.85
2023-05-19T12:49:13.747Z,29.28
2023-05-19T12:52:16.077Z,28.22
2023-05-19T12:55:20.493Z,27.82
2023-05-19T12:58:23.557Z,25.46
2023-05-19T13:01:25.814Z,25.05
2023-05-19T13:04:28.225Z,24.62
2023-05-19T13:07:30.296Z,25.09
2023-05-19T13:10:33.928Z,25.08
2023-05-19T13:13:59.733Z,25.59
2023-05-19T13:17:02.167Z,25.97
2023-05-19T13:20:04.848Z,26.00
2023-05-19T13:23:07.225Z,25.77
2023-05-19T13:26:09.289Z,25.29
2023-05-19T13:29:12.044Z,24.63
2023-05-19T13:32:14.055Z,25.00
2023-05-19T13:35:16.477Z,24.82
2023-05-19T13:38:18.584Z,25.25
2023-05-19T13:41:26.160Z,25.89
2023-05-19T13:44:28.156Z,25.96
2023-05-19T13:47:30.703Z,25.25
2023-05-19T13:50:34.186Z,24.32
2023-05-19T13:53:36.578Z,23.68
2023-05-19T13:56:39.090Z,23.62
2023-05-19T13:59:53.362Z,23.49
2023-05-19T14:03:03.665Z,23.80
2023-05-19T14:06:06.113Z,23.97
2023-05-19T14:09:08.122Z,24.21
2023-05-19T14:12:12.113Z,24.38
2023-05-19T14:15:14.393Z,23.92
2023-05-19T14:18:16.892Z,24.24
2023-05-19T14:21:18.910Z,24.34
2023-05-19T14:24:21.195Z,24.40
2023-05-19T14:27:23.162Z,24.61
2023-05-19T14:30:25.461Z,24.65
2023-05-19T14:33:27.448Z,24.36
2023-05-19T14:36:29.749Z,23.99
2023-05-19T14:39:31.749Z,23.60
2023-05-19T14:42:34.107Z,23.59
2023-05-19T14:45:36.151Z,23.37
2023-05-19T14:54:47.668Z,23.91
2023-05-19T14:57:50.205Z,23.94
2023-05-19T15:00:52.509Z,23.63
2023-05-19T15:03:54.590Z,23.16
2023-05-19T15:07:09.753Z,23.14
2023-05-19T15:10:12.893Z,23.09
2023-05-19T15:13:16.091Z,22.93
2023-05-19T15:16:18.523Z,23.01
2023-05-19T15:19:21.301Z,23.30
2023-05-19T15:22:23.340Z,23.57
2023-05-19T15:25:25.638Z,23.94
2023-05-19T15:28:27.606Z,23.96
2023-05-19T15:31:30.112Z,24.01
2023-05-19T15:34:32.300Z,24.01
2023-05-19T15:37:34.548Z,23.87
2023-05-19T15:40:36.596Z,23.61
2023-05-19T15:43:38.926Z,23.37
2023-05-19T15:46:41.127Z,23.50
2023-05-19T15:49:43.530Z,23.60
2023-05-19T15:52:45.519Z,23.71
2023-05-19T15:55:47.846Z,23.69
2023-05-19T15:58:49.944Z,23.34
2023-05-19T16:01:53.064Z,22.98
2023-05-19T16:04:55.589Z,23.15
2023-05-19T16:07:57.623Z,23.03
2023-05-19T16:10:59.910Z,23.02
2023-05-19T16:14:01.909Z,22.95
2023-05-19T16:17:04.903Z,23.00
2023-05-19T16:20:07.336Z,22.84
2023-05-19T16:23:09.749Z,22.62
2023-05-19T16:26:11.773Z,22.57
2023-05-19T16:29:14.072Z,22.61
2023-05-19T16:32:16.301Z,22.53
2023-05-19T16:35:18.631Z,22.37
2023-05-19T16:38:20.758Z,22.32
2023-05-19T16:41:23.043Z,22.30
2023-05-19T16:44:25.778Z,22.06
2023-05-19T16:47:28.080Z,21.98
2023-05-19T16:50:30.114Z,21.84
2023-05-19T16:53:32.423Z,21.80
2023-05-19T16:56:34.489Z,21.60
2023-05-19T16:59:36.791Z,21.43
2023-05-19T17:02:38.913Z,21.26
2023-05-19T17:05:43.369Z,21.14
2023-05-19T17:08:45.531Z,21.19
2023-05-19T17:11:47.800Z,21.23
2023-05-19T17:14:51.984Z,21.22
2023-05-19T17:17:54.379Z,21.06
2023-05-19T17:20:56.460Z,20.93
2023-05-19T17:23:58.713Z,20.93
2023-05-19T17:27:00.903Z,20.78
2023-05-19T17:30:03.482Z,20.77
2023-05-19T17:33:05.751Z,20.63
2023-05-19T17:36:08.482Z,20.54
2023-05-19T17:39:10.623Z,20.42
2023-05-19T17:42:12.888Z,20.25
2023-05-19T17:45:14.896Z,20.16
2023-05-19T17:48:17.331Z,20.28
2023-05-19T17:51:19.509Z,20.14
2023-05-19T17:54:22.069Z,20.06
2023-05-19T17:57:25.751Z,19.96
2023-05-19T18:00:28.303Z,19.70
2023-05-19T18:03:30.775Z,19.43
2023-05-19T18:06:32.980Z,19.21
2023-05-19T18:09:37.178Z,18.96
2023-05-19T18:12:39.233Z,18.99
2023-05-19T18:15:41.670Z,18.77
2023-05-19T18:18:46.933Z,18.58
2023-05-19T18:21:49.233Z,18.42
2023-05-19T18:24:52.041Z,18.27
2023-05-19T18:27:55.825Z,18.10
2023-05-19T18:31:02.135Z,18.00
2023-05-19T18:34:04.598Z,17.83
2023-05-19T18:37:06.558Z,17.72
2023-05-19T18:40:08.986Z,17.58
2023-05-19T18:43:12.074Z,17.47
2023-05-19T18:46:14.512Z,17.38
2023-05-19T18:49:17.167Z,17.30
2023-05-19T18:52:19.873Z,17.25
2023-05-19T18:55:22.727Z,17.15
2023-05-19T18:58:25.059Z,17.15
2023-05-19T19:01:27.275Z,17.08
2023-05-19T19:04:29.688Z,17.00
2023-05-19T19:07:31.716Z,16.94
2023-05-19T19:10:38.884Z,16.85
2023-05-19T19:13:41.135Z,16.76
2023-05-19T19:16:43.445Z,16.72
2023-05-19T19:19:45.606Z,16.68
2023-05-19T19:22:47.962Z,16.64
2023-05-19T19:25:50.497Z,16.62
2023-05-19T19:28:52.867Z,16.57
2023-05-19T19:31:54.880Z,16.55
2023-05-19T19:34:57.200Z,16.54
2023-05-19T19:37:59.220Z,16.54
2023-05-19T19:41:01.543Z,16.54
2023-05-19T19:44:03.607Z,16.53
2023-05-19T19:47:06.419Z,16.52
2023-05-19T19:50:09.208Z,16.51
2023-05-19T19:53:11.542Z,16.52
2023-05-19T19:56:13.583Z,16.50
2023-05-19T19:59:16.145Z,16.52
2023-05-19T20:02:18.180Z,16.51
2023-05-19T20:05:21.080Z,16.53
2023-05-19T20:08:23.871Z,16.55
2023-05-19T20:11:26.802Z,16.53
2023-05-19T20:14:28.856Z,16.53
2023-05-19T20:17:31.126Z,16.53
2023-05-19T20:20:33.437Z,16.63
2023-05-19T20:23:36.107Z,16.73
2023-05-19T20:26:38.075Z,16.77
2023-05-19T20:29:40.606Z,16.81
2023-05-19T20:32:42.593Z,16.87
2023-05-19T20:35:44.829Z,16.85
2023-05-19T20:38:47.959Z,16.87
2023-05-19T20:41:50.360Z,16.90
2023-05-19T20:44:52.688Z,16.93
2023-05-19T20:47:55.039Z,16.90
2023-05-19T20:50:57.229Z,16.93
2023-05-19T20:54:00.137Z,17.02
2023-05-19T20:57:06.398Z,16.98
2023-05-19T21:00:09.152Z,16.93
2023-05-19T21:03:11.665Z,16.88
2023-05-19T21:06:14.119Z,16.85
2023-05-19T21:09:16.208Z,16.83
2023-05-19T21:12:21.185Z,16.81
2023-05-19T21:15:23.834Z,16.74
2023-05-19T21:18:26.063Z,16.70
2023-05-19T21:21:28.319Z,16.69
2023-05-19T21:24:31.010Z,16.59
2023-05-19T21:27:35.447Z,16.51
2023-05-19T21:30:37.726Z,16.41
2023-05-19T21:33:39.733Z,16.37
2023-05-19T21:36:42.322Z,16.39
2023-05-19T21:39:44.643Z,16.35
2023-05-19T21:42:47.064Z,16.37
2023-05-19T21:45:49.013Z,16.37
2023-05-19T21:48:51.293Z,16.46
2023-05-19T21:51:53.261Z,16.38
2023-05-19T21:54:56.229Z,16.40
2023-05-19T21:57:59.583Z,16.29
2023-05-19T22:01:03.537Z,16.32
2023-05-19T22:04:06.035Z,16.23
2023-05-19T22:07:08.166Z,16.20
2023-05-19T22:10:10.582Z,16.13
2023-05-19T22:13:12.597Z,16.05
2023-05-19T22:16:15.003Z,15.97
2023-05-19T22:19:17.187Z,15.97
2023-05-19T22:22:19.483Z,15.95
2023-05-19T22:25:21.444Z,15.97
2023-05-19T22:28:23.667Z,15.97
2023-05-19T22:31:25.637Z,15.96
2023-05-19T22:34:28.003Z,15.91
2023-05-19T22:37:29.971Z,15.86
2023-05-19T22:40:32.662Z,15.81
2023-05-19T22:43:34.890Z,15.74
2023-05-19T22:46:37.281Z,15.72
2023-05-19T22:49:39.964Z,15.67
2023-05-19T22:52:42.265Z,15.73
2023-05-19T22:55:44.303Z,15.77
2023-05-19T22:58:46.635Z,15.75
2023-05-19T23:01:48.668Z,15.71
2023-05-19T23:04:50.937Z,15.70
2023-05-19T23:07:52.892Z,15.61
2023-05-19T23:10:59.237Z,15.50
2023-05-19T23:14:01.469Z,15.45
2023-05-19T23:17:03.830Z,15.40
2023-05-19T23:20:06.466Z,15.41
2023-05-19T23:23:08.807Z,15.36
2023-05-19T23:26:13.240Z,15.35
2023-05-19T23:29:15.465Z,15.33
2023-05-19T23:32:17.424Z,15.34
2023-05-19T23:35:20.524Z,15.33
2023-05-19T23:38:22.543Z,15.25
2023-05-19T23:41:24.797Z,15.20
2023-05-19T23:44:27.274Z,15.12
2023-05-19T23:47:29.614Z,15.07
2023-05-19T23:50:31.721Z,15.04
2023-05-19T23:53:33.968Z,15.08
2023-05-19T23:56:35.960Z,14.97
2023-05-19T23:59:38.254Z,14.91
